createdAt,value
2023-02-04T00:00:20.877Z,97.65
2023-02-04T00:03:08.930Z,97.45
2023-02-04T00:05:37.174Z,97.46
2023-02-04T00:08:05.151Z,97.48
2023-02-04T00:10:33.507Z,97.59
2023-02-04T00:13:01.650Z,97.53
2023-02-04T00:15:30.492Z,97.55
2023-02-04T00:17:58.509Z,97.63
2023-02-04T00:20:26.499Z,97.66
2023-02-04T00:22:54.544Z,97.66
2023-02-04T00:25:22.579Z,97.85
2023-02-04T00:27:50.677Z,97.88
2023-02-04T00:30:18.776Z,97.87
2023-02-04T00:32:46.684Z,97.88
2023-02-04T00:35:14.642Z,97.93
2023-02-04T00:37:42.882Z,97.82
2023-02-04T00:40:11.993Z,97.81
2023-02-04T00:42:41.146Z,97.69
2023-02-04T00:45:10.291Z,97.62
2023-02-04T00:47:39.803Z,97.66
2023-02-04T00:50:08.008Z,97.69
2023-02-04T00:52:35.943Z,97.65
2023-02-04T00:55:04.239Z,97.64
2023-02-04T00:57:32.191Z,97.70
2023-02-04T01:00:00.419Z,97.78
2023-02-04T01:02:28.778Z,97.82
2023-02-04T01:04:56.777Z,97.77
2023-02-04T01:07:25.066Z,97.59
2023-02-04T01:09:54.022Z,97.56
2023-02-04T01:12:22.526Z,97.57
2023-02-04T01:14:50.935Z,97.50
2023-02-04T01:17:19.771Z,97.45
2023-02-04T01:19:48.254Z,97.26
2023-02-04T01:22:16.343Z,97.18
2023-02-04T01:24:44.265Z,97.18
2023-02-04T01:27:33.768Z,97.21
2023-02-04T01:30:02.020Z,97.29
2023-02-04T01:32:29.929Z,97.32
2023-02-04T01:34:58.106Z,97.16
2023-02-04T01:37:26.035Z,97.11
2023-02-04T01:39:53.915Z,96.93
2023-02-04T01:42:22.211Z,96.76
2023-02-04T01:44:51.281Z,96.69
2023-02-04T01:47:20.579Z,96.71
2023-02-04T01:49:52.784Z,96.34
2023-02-04T01:52:21.965Z,96.02
2023-02-04T01:54:50.123Z,95.86
2023-02-04T01:57:18.162Z,96.02
2023-02-04T01:59:47.518Z,95.88
2023-02-04T02:02:48.594Z,95.89
2023-02-04T02:05:21.013Z,95.90
2023-02-04T02:07:54.234Z,96.00
2023-02-04T02:10:23.737Z,96.20
2023-02-04T02:12:53.717Z,96.15
2023-02-04T02:15:22.379Z,96.17
2023-02-04T02:17:53.233Z,96.26
2023-02-04T02:20:23.969Z,96.21
2023-02-04T02:23:10.404Z,96.39
2023-02-04T02:25:38.806Z,96.52
2023-02-04T02:28:12.775Z,96.58
2023-02-04T02:30:42.182Z,96.80
2023-02-04T02:33:10.265Z,96.77
2023-02-04T02:35:38.340Z,96.70
2023-02-04T02:38:06.299Z,96.63
2023-02-04T02:40:35.206Z,96.60
2023-02-04T02:43:03.439Z,96.59
2023-02-04T02:45:33.194Z,96.66
2023-02-04T02:48:02.360Z,96.77
2023-02-04T02:50:32.562Z,96.73
2023-02-04T02:53:01.616Z,96.76
2023-02-04T02:55:30.273Z,96.58
2023-02-04T02:57:58.630Z,96.37
2023-02-04T03:00:29.169Z,96.27
2023-02-04T03:03:07.029Z,96.30
2023-02-04T03:05:41.521Z,96.16
2023-02-04T03:08:11.791Z,96.15
2023-02-04T03:10:40.503Z,96.24
2023-02-04T03:13:09.209Z,96.29
2023-02-04T03:15:37.389Z,96.30
2023-02-04T03:18:06.556Z,96.35
2023-02-04T03:20:35.422Z,96.41
2023-02-04T03:23:03.365Z,96.58
2023-02-04T03:25:31.462Z,96.63
2023-02-04T03:28:00.132Z,96.67
2023-02-04T03:30:28.196Z,96.86
2023-02-04T03:32:56.741Z,96.74
2023-02-04T03:35:24.733Z,96.67
2023-02-04T03:37:52.758Z,96.65
2023-02-04T03:40:20.761Z,96.66
2023-02-04T03:42:48.643Z,96.62
2023-02-04T03:45:16.615Z,96.67
2023-02-04T03:47:44.558Z,96.66
2023-02-04T03:50:12.569Z,96.67
2023-02-04T03:52:40.586Z,96.67
2023-02-04T03:55:08.837Z,96.58
2023-02-04T03:57:36.765Z,96.32
2023-02-04T04:00:05.070Z,95.93
2023-02-04T04:02:40.926Z,95.74
2023-02-04T04:05:09.862Z,95.64
2023-02-04T04:07:37.761Z,95.67
2023-02-04T04:10:07.297Z,95.76
2023-02-04T04:12:35.469Z,95.53
2023-02-04T04:15:03.908Z,95.08
2023-02-04T04:17:32.579Z,94.76
2023-02-04T04:20:00.459Z,94.57
2023-02-04T04:22:28.332Z,94.66
2023-02-04T04:24:56.766Z,94.55
2023-02-04T04:27:24.660Z,94.29
2023-02-04T04:29:52.526Z,93.77
2023-02-04T04:32:21.686Z,93.77
2023-02-04T04:34:49.698Z,93.45
2023-02-04T04:37:17.581Z,93.45
2023-02-04T04:39:45.393Z,93.83
2023-02-04T04:42:13.271Z,93.89
2023-02-04T04:44:41.171Z,93.97
2023-02-04T04:47:09.423Z,94.00
2023-02-04T04:49:37.440Z,94.07
2023-02-04T04:52:05.349Z,94.19
2023-02-04T04:54:33.292Z,94.20
2023-02-04T04:57:01.316Z,94.14
2023-02-04T04:59:29.173Z,94.28
2023-02-04T05:01:57.264Z,94.65
2023-02-04T05:04:25.301Z,94.64
2023-02-04T05:06:53.261Z,94.84
2023-02-04T05:09:21.118Z,94.85
2023-02-04T05:11:48.982Z,94.98
2023-02-04T05:14:17.043Z,95.15
2023-02-04T05:16:44.954Z,95.27
2023-02-04T05:19:12.967Z,95.32
2023-02-04T05:21:41.249Z,95.28
2023-02-04T05:24:09.376Z,95.21
2023-02-04T05:26:37.266Z,95.10
2023-02-04T05:29:05.380Z,94.98
2023-02-04T05:31:33.437Z,94.56
2023-02-04T05:34:01.377Z,94.35
2023-02-04T05:36:29.449Z,94.09
2023-02-04T05:38:57.423Z,93.69
2023-02-04T05:41:25.281Z,93.97
2023-02-04T05:43:53.172Z,94.23
2023-02-04T05:46:21.201Z,93.94
2023-02-04T05:48:49.258Z,93.85
2023-02-04T05:51:17.509Z,93.85
2023-02-04T05:53:45.553Z,93.79
2023-02-04T05:56:13.529Z,93.59
2023-02-04T05:58:41.452Z,93.68
2023-02-04T06:01:09.757Z,93.96
2023-02-04T06:03:37.839Z,93.55
2023-02-04T06:06:06.148Z,93.48
2023-02-04T06:08:34.159Z,93.28
2023-02-04T06:11:02.040Z,93.55
2023-02-04T06:13:30.238Z,93.38
2023-02-04T06:15:58.169Z,93.28
2023-02-04T06:18:26.228Z,93.38
2023-02-04T06:20:54.161Z,93.24
2023-02-04T06:23:22.148Z,92.89
2023-02-04T06:25:50.365Z,92.26
2023-02-04T06:28:18.250Z,92.01
2023-02-04T06:30:46.216Z,91.50
2023-02-04T06:33:14.144Z,91.62
2023-02-04T06:35:42.045Z,91.79
2023-02-04T06:38:09.979Z,91.90
2023-02-04T06:40:37.890Z,91.92
2023-02-04T06:43:22.870Z,91.91
2023-02-04T06:45:52.119Z,91.08
2023-02-04T06:48:20.245Z,91.08
2023-02-04T06:50:48.201Z,91.00
2023-02-04T06:53:16.185Z,90.53
2023-02-04T06:55:44.082Z,90.97
2023-02-04T06:58:12.084Z,91.15
2023-02-04T07:00:40.062Z,90.94
2023-02-04T07:03:08.015Z,90.80
2023-02-04T07:05:35.923Z,90.22
2023-02-04T07:08:03.977Z,90.40
2023-02-04T07:10:32.221Z,90.20
2023-02-04T07:13:00.476Z,90.12
2023-02-04T07:15:28.528Z,90.17
2023-02-04T07:17:56.805Z,90.51
2023-02-04T07:20:25.056Z,90.99
2023-02-04T07:22:52.923Z,90.99
2023-02-04T07:25:20.784Z,91.34
2023-02-04T07:27:48.761Z,91.30
2023-02-04T07:30:17.036Z,91.20
2023-02-04T07:32:45.014Z,90.83
2023-02-04T07:35:12.872Z,90.25
2023-02-04T07:37:40.722Z,89.91
2023-02-04T07:40:10.400Z,89.65
2023-02-04T07:42:38.429Z,89.99
2023-02-04T07:45:11.276Z,89.70
2023-02-04T07:47:39.195Z,89.84
2023-02-04T07:50:07.569Z,89.59
2023-02-04T07:52:36.568Z,89.56
2023-02-04T07:55:05.278Z,89.88
2023-02-04T07:57:33.459Z,90.10
2023-02-04T08:00:01.295Z,90.18
2023-02-04T08:02:29.326Z,89.67
2023-02-04T08:04:57.456Z,89.34
2023-02-04T08:07:25.449Z,89.56
2023-02-04T08:09:53.350Z,89.37
2023-02-04T08:15:43.962Z,89.67
2023-02-04T08:18:11.802Z,89.62
2023-02-04T08:20:39.666Z,89.23
2023-02-04T08:23:08.534Z,88.08
2023-02-04T08:25:36.401Z,88.88
2023-02-04T08:28:05.308Z,89.33
2023-02-04T08:30:33.820Z,88.56
2023-02-04T08:33:02.079Z,87.93
2023-02-04T08:35:49.202Z,88.20
2023-02-04T08:38:17.261Z,88.36
2023-02-04T08:40:45.198Z,87.90
2023-02-04T08:43:13.194Z,88.52
2023-02-04T08:45:41.410Z,88.00
2023-02-04T08:48:09.374Z,87.55
2023-02-04T08:50:39.070Z,87.00
2023-02-04T08:53:07.368Z,87.49
2023-02-04T08:55:35.313Z,87.95
2023-02-04T08:58:03.388Z,87.54
2023-02-04T09:00:31.919Z,87.14
2023-02-04T09:03:26.173Z,87.34
2023-02-04T09:05:54.326Z,86.74
2023-02-04T09:08:22.195Z,87.12
2023-02-04T09:10:50.234Z,87.48
2023-02-04T09:13:18.558Z,87.60
2023-02-04T09:15:46.912Z,87.60
2023-02-04T09:18:15.219Z,87.34
2023-02-04T09:20:46.390Z,87.63
2023-02-04T09:23:14.287Z,87.19
2023-02-04T09:25:43.926Z,86.06
2023-02-04T09:28:13.381Z,86.52
2023-02-04T09:30:42.974Z,87.46
2023-02-04T09:33:12.369Z,86.69
2023-02-04T09:35:40.650Z,84.35
2023-02-04T09:38:08.626Z,82.88
2023-02-04T09:40:54.027Z,83.52
2023-02-04T09:43:25.162Z,83.64
2023-02-04T09:45:54.449Z,84.79
2023-02-04T09:48:24.376Z,85.01
2023-02-04T09:51:01.516Z,80.53
2023-02-04T09:53:30.265Z,78.67
2023-02-04T09:55:58.516Z,76.65
2023-02-04T09:58:31.497Z,75.31
2023-02-04T10:01:06.802Z,77.52
2023-02-04T10:03:34.903Z,77.70
2023-02-04T10:06:03.434Z,78.25
2023-02-04T10:08:33.548Z,78.12
2023-02-04T10:11:01.934Z,79.22
2023-02-04T10:13:37.814Z,79.17
2023-02-04T10:16:16.087Z,79.68
2023-02-04T10:18:44.485Z,80.46
2023-02-04T10:21:26.140Z,80.96
2023-02-04T10:23:57.229Z,78.65
2023-02-04T10:26:30.918Z,77.48
2023-02-04T10:29:05.519Z,76.07
2023-02-04T10:31:33.570Z,76.88
2023-02-04T10:34:32.425Z,74.67
2023-02-04T10:37:11.909Z,73.59
2023-02-04T10:39:43.282Z,73.00
2023-02-04T10:42:23.139Z,73.27
2023-02-04T10:45:28.834Z,72.74
2023-02-04T10:47:57.506Z,71.72
2023-02-04T10:50:27.437Z,72.57
2023-02-04T10:52:58.249Z,71.47
2023-02-04T10:55:26.615Z,70.84
2023-02-04T10:57:54.698Z,71.49
2023-02-04T11:00:24.861Z,71.84
2023-02-04T11:03:18.980Z,67.16
2023-02-04T11:05:47.068Z,66.01
2023-02-04T11:08:26.698Z,62.83
2023-02-04T11:11:04.611Z,59.24
2023-02-04T11:13:43.526Z,57.88
2023-02-04T11:16:17.760Z,61.61
2023-02-04T11:18:54.334Z,63.39
2023-02-04T11:21:29.257Z,60.03
2023-02-04T11:24:04.295Z,57.61
2023-02-04T11:26:37.358Z,58.03
2023-02-04T11:29:05.289Z,57.47
2023-02-04T11:31:42.160Z,57.97
2023-02-04T11:34:12.646Z,59.31
2023-02-04T11:37:06.714Z,56.05
2023-02-04T11:39:49.177Z,55.70
2023-02-04T11:42:39.385Z,60.88
2023-02-04T11:45:18.248Z,53.19
2023-02-04T11:47:47.409Z,51.88
2023-02-04T11:50:25.154Z,54.93
2023-02-04T11:52:57.608Z,57.90
2023-02-04T11:55:26.293Z,60.15
2023-02-04T12:01:21.513Z,61.45
2023-02-04T12:03:56.308Z,62.79
2023-02-04T12:06:30.085Z,64.85
2023-02-04T12:09:16.481Z,65.05
2023-02-04T12:11:55.919Z,65.33
2023-02-04T12:14:31.388Z,65.06
2023-02-04T12:16:59.372Z,66.43
2023-02-04T12:19:28.451Z,66.64
2023-02-04T12:21:56.358Z,67.28
2023-02-04T12:24:24.281Z,65.28
2023-02-04T12:26:52.169Z,65.24
2023-02-04T12:29:20.183Z,65.77
2023-02-04T12:31:48.245Z,65.34
2023-02-04T12:34:19.295Z,66.33
2023-02-04T12:36:47.357Z,67.49
2023-02-04T12:39:15.495Z,68.23
2023-02-04T12:41:43.526Z,68.36
2023-02-04T12:44:11.420Z,69.30
2023-02-04T12:46:39.741Z,69.88
2023-02-04T12:49:09.592Z,69.08
2023-02-04T12:51:37.847Z,65.00
2023-02-04T12:54:06.660Z,64.43
2023-02-04T12:56:34.595Z,64.33
2023-02-04T12:59:02.816Z,62.64
2023-02-04T13:01:31.510Z,63.03
2023-02-04T13:03:59.440Z,65.55
2023-02-04T13:06:27.332Z,67.18
2023-02-04T13:08:55.256Z,68.12
2023-02-04T13:11:23.163Z,67.36
2023-02-04T13:13:51.087Z,68.59
2023-02-04T13:16:19.552Z,68.55
2023-02-04T13:18:47.617Z,67.89
2023-02-04T13:21:15.598Z,67.69
2023-02-04T13:23:43.718Z,69.07
2023-02-04T13:26:11.728Z,70.71
2023-02-04T13:28:40.121Z,70.01
2023-02-04T13:31:09.176Z,69.95
2023-02-04T13:33:37.128Z,70.09
2023-02-04T13:36:05.556Z,68.97
2023-02-04T13:38:33.765Z,68.83
2023-02-04T13:41:02.037Z,69.80
2023-02-04T13:43:30.001Z,69.72
2023-02-04T13:45:58.214Z,71.08
2023-02-04T13:48:26.201Z,72.40
2023-02-04T13:50:54.756Z,72.90
2023-02-04T13:53:23.399Z,74.22
2023-02-04T13:55:51.348Z,74.38
2023-02-04T13:58:19.394Z,74.81
2023-02-04T14:00:47.499Z,73.88
2023-02-04T14:03:15.516Z,74.14
2023-02-04T14:05:43.859Z,75.22
2023-02-04T14:08:12.064Z,77.46
2023-02-04T14:10:39.972Z,77.88
2023-02-04T14:13:07.959Z,76.37
2023-02-04T14:15:35.962Z,78.41
2023-02-04T14:18:04.974Z,76.13
2023-02-04T14:20:33.149Z,76.99
2023-02-04T14:23:02.397Z,78.14
2023-02-04T14:25:30.517Z,78.36
2023-02-04T14:28:00.181Z,76.92
2023-02-04T14:30:29.200Z,76.51
2023-02-04T14:32:57.929Z,77.27
2023-02-04T14:35:26.403Z,76.90
2023-02-04T14:38:43.186Z,76.47
2023-02-04T14:41:10.975Z,77.14
2023-02-04T14:43:39.353Z,76.24
2023-02-04T14:46:10.791Z,77.36
2023-02-04T14:48:38.872Z,77.25
2023-02-04T14:51:06.977Z,77.40
2023-02-04T14:53:35.149Z,76.56
2023-02-04T14:56:03.622Z,76.74
2023-02-04T14:58:32.534Z,78.09
2023-02-04T15:01:24.870Z,77.29
2023-02-04T15:03:53.930Z,78.63
2023-02-04T15:06:21.984Z,78.71
2023-02-04T15:09:07.956Z,79.61
2023-02-04T15:11:36.165Z,79.30
2023-02-04T15:14:04.538Z,80.12
2023-02-04T15:16:32.521Z,79.66
2023-02-04T15:19:00.558Z,79.10
2023-02-04T15:21:28.715Z,80.06
2023-02-04T15:23:56.734Z,80.34
2023-02-04T15:26:25.295Z,80.83
2023-02-04T15:28:53.556Z,81.49
2023-02-04T15:31:22.802Z,80.96
2023-02-04T15:33:50.323Z,81.21
2023-02-04T15:36:18.361Z,80.84
2023-02-04T15:38:46.566Z,80.82
2023-02-04T15:41:14.408Z,81.33
2023-02-04T15:43:42.448Z,82.03
2023-02-04T15:46:10.279Z,82.04
2023-02-04T15:48:38.757Z,82.60
2023-02-04T15:51:06.840Z,82.49
2023-02-04T15:53:34.917Z,82.16
2023-02-04T15:56:02.924Z,82.04
2023-02-04T15:58:31.482Z,82.95
2023-02-04T16:01:00.510Z,83.22
2023-02-04T16:03:30.143Z,83.20
2023-02-04T16:05:58.475Z,82.70
2023-02-04T16:08:26.555Z,83.07
2023-02-04T16:10:54.432Z,83.00
2023-02-04T16:13:22.407Z,83.05
2023-02-04T16:15:50.349Z,83.20
2023-02-04T16:18:18.324Z,84.04
2023-02-04T16:20:46.441Z,83.57
2023-02-04T16:23:15.164Z,84.29
2023-02-04T16:25:43.057Z,84.41
2023-02-04T16:28:11.328Z,85.10
2023-02-04T16:30:40.193Z,86.41
2023-02-04T16:33:08.235Z,85.68
2023-02-04T16:36:00.593Z,85.33
2023-02-04T16:38:29.711Z,86.02
2023-02-04T16:40:58.118Z,86.71
2023-02-04T16:43:26.328Z,86.08
2023-02-04T16:45:54.905Z,86.15
2023-02-04T16:48:23.497Z,86.65
2023-02-04T16:50:51.975Z,86.37
2023-02-04T16:53:20.345Z,86.17
2023-02-04T16:55:48.294Z,86.39
2023-02-04T16:58:16.829Z,86.76
2023-02-04T17:00:45.453Z,86.57
2023-02-04T17:03:14.590Z,86.56
2023-02-04T17:05:43.304Z,86.46
2023-02-04T17:08:13.614Z,87.27
2023-02-04T17:10:41.958Z,87.09
2023-02-04T17:13:10.338Z,86.89
2023-02-04T17:15:38.574Z,86.82
2023-02-04T17:18:06.650Z,86.81
2023-02-04T17:20:35.741Z,87.16
2023-02-04T17:23:04.091Z,88.02
2023-02-04T17:25:32.550Z,87.37
2023-02-04T17:28:00.868Z,87.13
2023-02-04T17:30:29.234Z,87.76
2023-02-04T17:32:57.364Z,87.74
2023-02-04T17:35:25.286Z,87.45
2023-02-04T17:37:53.260Z,88.12
2023-02-04T17:40:21.298Z,87.64
2023-02-04T17:42:49.225Z,88.56
2023-02-04T17:45:17.363Z,88.20
2023-02-04T17:47:47.667Z,88.31
2023-02-04T17:50:15.913Z,88.07
2023-02-04T17:52:44.095Z,88.01
2023-02-04T17:55:27.825Z,87.93
2023-02-04T17:57:56.900Z,88.03
2023-02-04T18:00:28.262Z,88.30
2023-02-04T18:02:57.045Z,88.27
2023-02-04T18:05:28.362Z,88.00
2023-02-04T18:08:04.779Z,88.02
2023-02-04T18:10:36.029Z,87.92
2023-02-04T18:13:14.017Z,88.04
2023-02-04T18:15:48.871Z,87.82
2023-02-04T18:18:31.418Z,88.11
2023-02-04T18:24:18.564Z,87.46
2023-02-04T18:26:56.370Z,86.99
2023-02-04T18:29:35.124Z,87.01
2023-02-04T18:32:29.464Z,86.48
2023-02-04T18:34:57.776Z,86.30
2023-02-04T18:37:34.299Z,85.81
2023-02-04T18:40:24.260Z,85.82
2023-02-04T18:43:05.468Z,85.87
2023-02-04T18:45:33.971Z,85.89
2023-02-04T18:48:22.054Z,86.08
2023-02-04T18:50:53.217Z,86.03
2023-02-04T18:53:27.409Z,85.56
2023-02-04T18:55:57.773Z,85.11
2023-02-04T18:58:36.744Z,85.15
2023-02-04T19:01:11.218Z,85.21
2023-02-04T19:03:52.267Z,85.09
2023-02-04T19:06:29.698Z,85.16
2023-02-04T19:09:10.373Z,85.02
2023-02-04T19:11:42.541Z,85.10
2023-02-04T19:14:36.528Z,84.87
2023-02-04T19:17:14.556Z,85.00
2023-02-04T19:20:16.719Z,84.63
2023-02-04T19:23:09.355Z,84.59
2023-02-04T19:25:46.072Z,84.71
2023-02-04T19:28:35.742Z,84.70
2023-02-04T19:31:06.429Z,84.81
2023-02-04T19:33:45.039Z,85.02
2023-02-04T19:36:33.431Z,85.21
2023-02-04T19:39:16.305Z,85.10
2023-02-04T19:41:47.549Z,85.16
2023-02-04T19:44:31.155Z,85.43
2023-02-04T19:47:22.470Z,85.43
2023-02-04T19:49:51.837Z,85.44
2023-02-04T19:52:34.198Z,85.37
2023-02-04T19:55:25.964Z,85.09
2023-02-04T19:57:58.746Z,85.14
2023-02-04T20:00:36.992Z,85.01
2023-02-04T20:03:34.145Z,85.42
2023-02-04T20:06:37.435Z,85.41
2023-02-04T20:09:30.474Z,85.57
2023-02-04T20:12:01.087Z,85.56
2023-02-04T20:14:36.263Z,85.63
2023-02-04T20:17:15.116Z,85.66
2023-02-04T20:19:43.971Z,85.28
2023-02-04T20:22:18.667Z,85.10
2023-02-04T20:24:50.140Z,85.27
2023-02-04T20:27:22.819Z,85.40
2023-02-04T20:30:01.376Z,85.42
2023-02-04T20:32:29.798Z,85.50
2023-02-04T20:35:06.890Z,85.43
2023-02-04T20:37:35.824Z,85.53
2023-02-04T20:40:27.294Z,85.67
2023-02-04T20:43:24.611Z,85.79
2023-02-04T20:46:24.604Z,85.96
2023-02-04T20:48:52.892Z,86.23
2023-02-04T20:51:25.211Z,86.37
2023-02-04T20:53:55.037Z,86.35
2023-02-04T20:56:28.631Z,86.48
2023-02-04T20:59:12.437Z,86.40
2023-02-04T21:01:40.356Z,86.71
2023-02-04T21:04:38.701Z,87.66
2023-02-04T21:07:21.364Z,86.37
2023-02-04T21:09:50.063Z,86.41
2023-02-04T21:15:33.309Z,86.73
2023-02-04T21:18:01.511Z,86.92
2023-02-04T21:20:29.566Z,86.91
2023-02-04T21:22:59.018Z,87.17
2023-02-04T21:25:27.062Z,87.24
2023-02-04T21:27:55.269Z,87.40
2023-02-04T21:30:25.773Z,87.56
2023-02-04T21:32:53.719Z,87.63
2023-02-04T21:35:21.851Z,87.65
2023-02-04T21:37:59.416Z,87.50
2023-02-04T21:40:27.517Z,87.49
2023-02-04T21:45:57.538Z,86.43
2023-02-04T21:48:25.718Z,86.54
2023-02-04T21:50:54.064Z,86.55
2023-02-04T21:53:22.251Z,86.07
2023-02-04T21:55:50.279Z,86.03
2023-02-04T21:58:18.465Z,85.54
2023-02-04T22:00:46.533Z,85.01
2023-02-04T22:03:14.526Z,85.14
2023-02-04T22:05:43.456Z,84.65
2023-02-04T22:08:12.195Z,83.84
2023-02-04T22:10:40.346Z,84.00
2023-02-04T22:13:08.709Z,83.86
2023-02-04T22:15:36.652Z,84.22
2023-02-04T22:18:04.803Z,83.75
2023-02-04T22:20:33.586Z,83.63
2023-02-04T22:23:03.584Z,83.78
2023-02-04T22:25:31.861Z,83.71
2023-02-04T22:28:00.182Z,83.65
2023-02-04T22:30:28.261Z,83.83
2023-02-04T22:32:56.199Z,83.85
2023-02-04T22:35:24.155Z,83.68
2023-02-04T22:37:52.390Z,82.90
2023-02-04T22:40:20.506Z,83.11
2023-02-04T22:42:48.381Z,83.64
2023-02-04T22:45:16.930Z,83.42
2023-02-04T22:47:44.809Z,83.47
2023-02-04T22:50:13.927Z,83.43
2023-02-04T22:52:43.810Z,83.65
2023-02-04T22:55:11.925Z,83.53
2023-02-04T22:57:40.002Z,83.26
2023-02-04T23:00:12.732Z,83.17
2023-02-04T23:02:40.711Z,83.11
2023-02-04T23:05:08.694Z,83.34
2023-02-04T23:07:39.289Z,83.41
2023-02-04T23:10:08.354Z,83.36
2023-02-04T23:12:36.268Z,83.52
2023-02-04T23:15:05.849Z,83.38
2023-02-04T23:17:33.706Z,83.39
2023-02-04T23:20:01.845Z,83.82
2023-02-04T23:22:29.936Z,83.63
2023-02-04T23:24:57.975Z,83.27
2023-02-04T23:27:26.521Z,83.36
2023-02-04T23:29:54.442Z,83.78
2023-02-04T23:32:22.358Z,83.81
2023-02-04T23:34:50.240Z,83.96
2023-02-04T23:37:18.272Z,83.92
2023-02-04T23:39:46.274Z,84.01
2023-02-04T23:42:17.899Z,84.35
2023-02-04T23:44:45.817Z,84.56
2023-02-04T23:47:13.788Z,84.54
2023-02-04T23:49:42.628Z,84.83
2023-02-04T23:52:10.677Z,84.49
2023-02-04T23:54:38.611Z,85.17
2023-02-04T23:57:06.614Z,85.31
2023-02-04T23:59:35.049Z,85.26
